Main page
METAR-TAF:

METAR-TAF

Airports :

Gustavo Rojas Pinilla International Airport

San Andrés, Colombia

latitude: 12-35N, longitude: 081-43W, elevation: 1 m

Current weather observation

The report was made 20 minutes ago, at 06:00 UTC
Wind 8 kt from the East/Northeast, varying between Northeast and East/Southeast
Temperature 30°C
Humidity 75%
Pressure 1012 hPa
Visibility 10 km or more
Few clouds at a height of 1700 ft

METAR: SKSP 270600Z 07008KT 050V110 9999 FEW017 30/25 Q1012

Time: 01:20 (06:20 UTC)

Forecast

The report was made 1 hour and 50 minutes ago, at 04:30 UTC
Forecast valid from 27 at 06 UTC to 28 at 06 UTC
Wind 10 kt from the East
Visibility 10 km or more
Scattered clouds at a height of 1800 ft

TAF: SKSP 270430Z 2706/2806 08010KT 9999 SCT018 TX33/2718Z TN28/2710Z

Weather observations and forecasts of more than 4000 airports (METAR and TAF reports).

The available stations are represented by yellow and red dots on the map.

Hover mouse over dot to see the name of the station.

Then click to see weather observations and forecasts.

To change the map : click on the green buttons with a black cross to zoom in, on the green button with a dash to zoom out, or on the green arrows for adjacent maps.


METAR-TAF: